createdAt,value
2022-12-07T00:01:34.272Z,-1.34
2022-12-07T00:04:06.812Z,-1.30
2022-12-07T00:06:38.843Z,-1.23
2022-12-07T00:09:11.285Z,-1.72
2022-12-07T00:11:37.847Z,-1.90
2022-12-07T00:14:07.917Z,-2.06
2022-12-07T00:16:35.686Z,-2.26
2022-12-07T00:19:03.016Z,-2.32
2022-12-07T00:21:32.270Z,-2.54
2022-12-07T00:23:59.359Z,-2.42
2022-12-07T00:26:28.834Z,-2.80
2022-12-07T00:28:59.288Z,-2.74
2022-12-07T00:31:31.370Z,-2.67
2022-12-07T00:33:58.852Z,-2.39
2022-12-07T00:36:27.447Z,-2.77
2022-12-07T00:38:55.900Z,-2.94
2022-12-07T00:41:25.058Z,-2.72
2022-12-07T00:43:52.449Z,-2.62
2022-12-07T00:46:20.846Z,-2.63
2022-12-07T00:48:48.961Z,-2.59
2022-12-07T00:51:17.136Z,-2.20
2022-12-07T00:53:43.842Z,-2.22
2022-12-07T00:56:14.004Z,-2.44
2022-12-07T00:58:40.995Z,-2.53
2022-12-07T01:01:09.025Z,-2.50
2022-12-07T01:03:36.273Z,-2.60
2022-12-07T01:06:03.705Z,-2.54
2022-12-07T01:08:30.471Z,-2.57
2022-12-07T01:11:06.570Z,-2.25
2022-12-07T01:13:35.014Z,-2.26
2022-12-07T01:16:05.012Z,-2.39
2022-12-07T01:18:34.268Z,-2.70
2022-12-07T01:21:00.746Z,-2.62
2022-12-07T01:23:27.448Z,-2.93
2022-12-07T01:26:02.186Z,-2.74
2022-12-07T01:28:31.116Z,-2.91
2022-12-07T01:31:04.018Z,-3.01
2022-12-07T01:33:34.150Z,-3.03
2022-12-07T01:36:21.505Z,-2.71
2022-12-07T01:38:52.526Z,-2.92
2022-12-07T01:41:19.845Z,-2.94
2022-12-07T01:44:22.343Z,-2.92
2022-12-07T01:46:48.882Z,-2.76
2022-12-07T01:49:40.143Z,-2.88
2022-12-07T01:52:32.253Z,-2.74
2022-12-07T01:55:03.302Z,-2.81
2022-12-07T01:57:32.088Z,-2.89
2022-12-07T01:59:59.489Z,-3.05
2022-12-07T02:02:34.254Z,-2.89
2022-12-07T02:05:02.931Z,-2.47
2022-12-07T02:07:32.065Z,-2.26
2022-12-07T02:09:58.888Z,-2.22
2022-12-07T02:12:26.194Z,-2.26
2022-12-07T02:14:53.407Z,-2.06
2022-12-07T02:17:26.001Z,-1.91
2022-12-07T02:20:12.427Z,-1.57
2022-12-07T02:23:00.309Z,-1.40
2022-12-07T02:25:50.250Z,-1.23
2022-12-07T02:28:22.847Z,-1.14
2022-12-07T02:30:53.288Z,-1.04
2022-12-07T02:33:29.446Z,-1.03
2022-12-07T02:36:05.450Z,-0.97
2022-12-07T02:38:53.504Z,-0.93
2022-12-07T02:41:25.948Z,-0.97
2022-12-07T02:44:00.891Z,-0.96
2022-12-07T02:46:34.600Z,-0.86
2022-12-07T02:49:02.489Z,-0.82
2022-12-07T02:51:34.181Z,-0.81
2022-12-07T02:54:02.179Z,-0.71
2022-12-07T02:56:49.990Z,-0.74
2022-12-07T02:59:31.836Z,-0.64
2022-12-07T03:02:23.417Z,-0.56
2022-12-07T03:05:14.376Z,-0.46
2022-12-07T03:07:43.184Z,-0.43
2022-12-07T03:10:54.242Z,-0.40
2022-12-07T03:13:20.760Z,-0.35
2022-12-07T03:15:56.736Z,-0.33
2022-12-07T03:18:27.496Z,-0.32
2022-12-07T03:20:58.402Z,-0.37
2022-12-07T03:23:26.693Z,-0.32
2022-12-07T03:26:00.863Z,-0.26
2022-12-07T03:28:35.776Z,-0.34
2022-12-07T03:31:07.943Z,-0.35
2022-12-07T03:33:48.800Z,-0.26
2022-12-07T03:36:27.638Z,-0.20
2022-12-07T03:39:03.064Z,-0.12
2022-12-07T03:41:35.007Z,-0.06
2022-12-07T03:44:04.348Z,-0.11
2022-12-07T03:46:38.317Z,-0.20
2022-12-07T03:49:33.763Z,-0.11
2022-12-07T03:52:21.641Z,-0.04
2022-12-07T03:55:00.691Z,0.04
2022-12-07T03:57:30.445Z,0.00
2022-12-07T03:59:58.490Z,0.03
2022-12-07T04:02:28.577Z,0.03
2022-12-07T04:04:56.661Z,0.10
2022-12-07T04:07:23.236Z,0.09
2022-12-07T04:09:49.951Z,-0.01
2022-12-07T04:12:16.554Z,0.09
2022-12-07T04:14:43.153Z,0.14
2022-12-07T04:17:09.810Z,0.27
2022-12-07T04:19:36.428Z,0.33
2022-12-07T04:22:05.216Z,0.35
2022-12-07T04:24:32.561Z,0.49
2022-12-07T04:26:59.207Z,0.52
2022-12-07T04:29:26.702Z,0.51
2022-12-07T04:31:53.901Z,0.24
2022-12-07T04:34:21.080Z,0.28
2022-12-07T04:36:48.650Z,0.38
2022-12-07T04:39:25.809Z,0.37
2022-12-07T04:41:53.171Z,0.48
2022-12-07T04:44:21.072Z,0.58
2022-12-07T04:46:48.490Z,0.53
2022-12-07T04:49:17.068Z,0.55
2022-12-07T04:51:44.559Z,0.35
2022-12-07T04:54:11.970Z,0.31
2022-12-07T04:56:38.599Z,0.41
2022-12-07T04:59:05.325Z,0.49
2022-12-07T05:01:32.072Z,0.52
2022-12-07T05:03:59.090Z,0.52
2022-12-07T05:06:26.132Z,0.52
2022-12-07T05:08:55.178Z,0.43
2022-12-07T05:11:39.882Z,0.48
2022-12-07T05:14:20.242Z,0.51
2022-12-07T05:16:49.826Z,0.51
2022-12-07T05:19:17.845Z,0.57
2022-12-07T05:21:44.594Z,0.33
2022-12-07T05:24:13.685Z,0.37
2022-12-07T05:26:40.272Z,0.28
2022-12-07T05:29:06.857Z,0.40
2022-12-07T05:31:36.015Z,0.48
2022-12-07T05:34:03.008Z,0.53
2022-12-07T05:36:32.086Z,0.58
2022-12-07T05:38:59.677Z,0.48
2022-12-07T05:41:45.228Z,0.45
2022-12-07T05:44:11.789Z,0.45
2022-12-07T05:46:38.385Z,0.50
2022-12-07T05:49:04.918Z,0.63
2022-12-07T05:51:31.597Z,0.65
2022-12-07T05:53:58.185Z,0.61
2022-12-07T05:56:25.365Z,0.47
2022-12-07T05:59:10.445Z,0.58
2022-12-07T06:01:37.071Z,0.56
2022-12-07T06:04:06.320Z,0.66
2022-12-07T06:06:32.925Z,0.63
2022-12-07T06:08:59.732Z,0.68
2022-12-07T06:11:44.989Z,0.62
2022-12-07T06:14:11.563Z,0.62
2022-12-07T06:16:38.175Z,0.65
2022-12-07T06:19:04.806Z,0.66
2022-12-07T06:21:31.368Z,0.70
2022-12-07T06:24:00.173Z,0.75
2022-12-07T06:26:26.842Z,0.69
2022-12-07T06:28:53.430Z,0.75
2022-12-07T06:31:20.239Z,0.74
2022-12-07T06:33:46.847Z,0.74
2022-12-07T06:36:13.492Z,0.73
2022-12-07T06:38:40.115Z,0.78
2022-12-07T06:41:07.518Z,0.74
2022-12-07T06:43:34.784Z,0.76
2022-12-07T06:46:01.390Z,0.80
2022-12-07T06:48:28.043Z,0.80
2022-12-07T06:50:55.473Z,0.81
2022-12-07T06:53:23.142Z,0.91
2022-12-07T06:55:49.798Z,0.97
2022-12-07T06:58:17.554Z,0.95
2022-12-07T07:00:44.922Z,0.88
2022-12-07T07:03:11.639Z,0.94
2022-12-07T07:05:38.213Z,0.92
2022-12-07T07:08:22.072Z,1.04
2022-12-07T07:10:49.363Z,1.03
2022-12-07T07:13:16.376Z,0.97
2022-12-07T07:15:43.108Z,0.99
2022-12-07T07:18:09.746Z,0.95
2022-12-07T07:20:36.636Z,1.03
2022-12-07T07:23:03.359Z,0.98
2022-12-07T07:25:30.247Z,1.21
2022-12-07T07:27:56.818Z,1.20
2022-12-07T07:30:23.543Z,1.39
2022-12-07T07:32:50.214Z,1.46
2022-12-07T07:35:17.366Z,1.55
2022-12-07T07:37:44.165Z,1.51
2022-12-07T07:40:11.317Z,1.61
2022-12-07T07:42:37.880Z,1.50
2022-12-07T07:45:05.530Z,1.66
2022-12-07T07:47:32.159Z,1.54
2022-12-07T07:49:58.774Z,1.63
2022-12-07T07:52:25.341Z,1.72
2022-12-07T07:54:52.063Z,1.74
2022-12-07T07:57:18.864Z,1.92
2022-12-07T07:59:45.493Z,1.90
2022-12-07T08:02:16.766Z,1.96
2022-12-07T08:04:43.746Z,1.93
2022-12-07T08:07:11.017Z,2.15
2022-12-07T08:09:37.629Z,2.11
2022-12-07T08:12:04.510Z,2.35
2022-12-07T08:14:31.235Z,2.47
2022-12-07T08:16:57.833Z,2.50
2022-12-07T08:19:24.846Z,2.63
2022-12-07T08:21:51.536Z,2.59
2022-12-07T08:24:18.200Z,2.63
2022-12-07T08:26:45.147Z,2.99
2022-12-07T08:29:11.737Z,3.08
2022-12-07T08:31:39.062Z,3.15
2022-12-07T08:34:05.675Z,3.43
2022-12-07T08:36:32.224Z,3.06
2022-12-07T08:41:45.271Z,3.86
2022-12-07T08:44:11.811Z,3.90
2022-12-07T08:46:43.218Z,3.79
2022-12-07T08:49:14.964Z,4.24
2022-12-07T08:51:42.043Z,4.48
2022-12-07T08:54:12.256Z,4.48
2022-12-07T08:56:39.292Z,4.88
2022-12-07T08:59:06.829Z,5.06
2022-12-07T09:01:34.156Z,5.10
2022-12-07T09:04:00.800Z,5.27
2022-12-07T09:06:28.479Z,5.40
2022-12-07T09:08:59.161Z,5.54
2022-12-07T09:11:28.861Z,6.17
2022-12-07T09:13:56.149Z,6.04
2022-12-07T09:16:23.249Z,6.23
2022-12-07T09:18:49.870Z,6.41
2022-12-07T09:21:16.393Z,6.55
2022-12-07T09:23:43.837Z,6.21
2022-12-07T09:26:11.178Z,6.49
2022-12-07T09:28:38.013Z,5.34
2022-12-07T09:34:01.950Z,5.85
2022-12-07T09:36:29.498Z,6.61
2022-12-07T09:38:56.437Z,5.85
2022-12-07T09:41:25.212Z,6.09
2022-12-07T09:43:53.366Z,6.75
2022-12-07T09:46:21.884Z,6.50
2022-12-07T09:48:51.014Z,6.66
2022-12-07T09:51:24.147Z,6.91
2022-12-07T09:53:53.945Z,7.25
2022-12-07T09:56:23.312Z,6.93
2022-12-07T09:58:50.940Z,7.00
2022-12-07T10:01:22.977Z,6.87
2022-12-07T10:04:02.682Z,6.74
2022-12-07T10:06:29.470Z,6.84
2022-12-07T10:08:56.007Z,7.01
2022-12-07T10:11:22.595Z,7.25
2022-12-07T10:13:55.109Z,7.65
2022-12-07T10:16:41.498Z,7.68
2022-12-07T10:19:26.135Z,7.57
2022-12-07T10:22:06.070Z,7.55
2022-12-07T10:24:32.956Z,7.31
2022-12-07T10:26:59.700Z,7.41
2022-12-07T10:29:32.797Z,7.35
2022-12-07T10:32:21.234Z,6.72
2022-12-07T10:34:52.225Z,7.32
2022-12-07T10:37:21.488Z,7.19
2022-12-07T10:39:58.406Z,7.56
2022-12-07T10:42:31.130Z,7.45
2022-12-07T10:45:18.408Z,7.13
2022-12-07T10:47:53.981Z,6.87
2022-12-07T10:50:42.564Z,6.96
2022-12-07T10:53:21.282Z,6.77
2022-12-07T10:56:07.798Z,7.37
2022-12-07T10:58:46.583Z,7.71
2022-12-07T11:01:31.395Z,7.99
2022-12-07T11:04:30.638Z,7.72
2022-12-07T11:07:14.768Z,7.68
2022-12-07T11:10:11.973Z,7.45
2022-12-07T11:12:41.301Z,7.59
2022-12-07T11:15:20.474Z,7.32
2022-12-07T11:17:49.788Z,7.18
2022-12-07T11:20:34.476Z,7.59
2022-12-07T11:23:19.201Z,7.89
2022-12-07T11:26:16.722Z,7.97
2022-12-07T11:29:51.282Z,8.04
2022-12-07T11:32:50.325Z,7.87
2022-12-07T11:35:39.441Z,8.17
2022-12-07T11:38:24.649Z,8.15
2022-12-07T11:41:14.220Z,8.34
2022-12-07T11:44:06.330Z,8.76
2022-12-07T11:46:46.741Z,8.36
2022-12-07T11:49:13.176Z,8.40
2022-12-07T11:51:42.020Z,7.88
2022-12-07T11:54:24.950Z,7.58
2022-12-07T11:56:54.543Z,7.66
2022-12-07T11:59:29.801Z,7.65
2022-12-07T12:02:10.639Z,7.89
2022-12-07T12:05:38.037Z,8.03
2022-12-07T12:11:18.109Z,6.95
2022-12-07T12:14:41.959Z,6.72
2022-12-07T12:17:13.274Z,6.49
2022-12-07T12:19:59.636Z,7.35
2022-12-07T12:22:35.639Z,6.78
2022-12-07T12:25:07.658Z,6.30
2022-12-07T12:27:40.148Z,6.63
2022-12-07T12:30:32.729Z,7.17
2022-12-07T12:33:06.853Z,7.01
2022-12-07T12:35:37.978Z,6.59
2022-12-07T12:38:26.391Z,6.62
2022-12-07T12:40:53.253Z,6.58
2022-12-07T12:43:48.666Z,6.49
2022-12-07T12:46:30.621Z,6.42
2022-12-07T12:49:23.346Z,6.17
2022-12-07T12:51:58.306Z,6.04
2022-12-07T12:54:29.318Z,5.94
2022-12-07T12:57:16.237Z,5.96
2022-12-07T12:59:58.375Z,5.86
2022-12-07T13:02:33.689Z,5.85
2022-12-07T13:05:11.098Z,5.94
2022-12-07T13:07:52.864Z,6.08
2022-12-07T13:10:41.480Z,6.02
2022-12-07T13:13:11.905Z,6.18
2022-12-07T13:15:39.862Z,6.34
2022-12-07T13:18:09.386Z,6.47
2022-12-07T13:20:49.613Z,6.53
2022-12-07T13:23:39.658Z,6.48
2022-12-07T13:26:40.516Z,6.46
2022-12-07T13:29:17.716Z,6.30
2022-12-07T13:31:53.017Z,6.23
2022-12-07T13:34:40.821Z,6.18
2022-12-07T13:37:28.059Z,6.08
2022-12-07T13:40:17.529Z,5.99
2022-12-07T13:42:45.443Z,6.04
2022-12-07T13:45:51.045Z,5.86
2022-12-07T13:48:34.792Z,5.78
2022-12-07T13:51:04.087Z,5.60
2022-12-07T13:53:31.722Z,5.54
2022-12-07T13:56:00.522Z,5.43
2022-12-07T13:58:31.028Z,5.51
2022-12-07T14:00:57.883Z,5.50
2022-12-07T14:03:37.088Z,5.43
2022-12-07T14:06:16.578Z,5.27
2022-12-07T14:08:44.301Z,5.34
2022-12-07T14:11:20.412Z,5.36
2022-12-07T14:13:59.561Z,5.18
2022-12-07T14:16:32.021Z,5.10
2022-12-07T14:19:01.092Z,5.13
2022-12-07T14:21:30.940Z,5.06
2022-12-07T14:24:20.337Z,5.11
2022-12-07T14:26:49.464Z,5.13
2022-12-07T14:29:32.809Z,4.97
2022-12-07T14:32:21.328Z,5.04
2022-12-07T14:34:59.569Z,4.86
2022-12-07T14:37:26.932Z,4.79
2022-12-07T14:39:53.675Z,4.75
2022-12-07T14:42:21.270Z,4.73
2022-12-07T14:44:47.948Z,4.70
2022-12-07T14:50:03.426Z,4.64
2022-12-07T14:55:31.534Z,4.41
2022-12-07T14:57:58.477Z,4.26
2022-12-07T15:00:27.704Z,4.09
2022-12-07T15:02:54.640Z,4.04
2022-12-07T15:05:21.864Z,3.92
2022-12-07T15:07:49.681Z,3.85
2022-12-07T15:10:30.800Z,3.75
2022-12-07T15:13:21.327Z,3.72
2022-12-07T15:15:49.798Z,3.56
2022-12-07T15:18:17.362Z,3.38
2022-12-07T15:20:44.490Z,3.16
2022-12-07T15:23:12.378Z,2.90
2022-12-07T15:25:46.173Z,2.60
2022-12-07T15:28:13.019Z,2.42
2022-12-07T15:30:46.701Z,2.05
2022-12-07T15:33:14.068Z,1.83
2022-12-07T15:35:44.848Z,1.53
2022-12-07T15:38:12.073Z,1.21
2022-12-07T15:40:38.688Z,0.97
2022-12-07T15:43:05.747Z,0.81
2022-12-07T15:45:32.317Z,0.59
2022-12-07T15:50:45.886Z,0.23
2022-12-07T15:53:12.481Z,0.16
2022-12-07T15:55:41.895Z,0.22
2022-12-07T15:58:08.471Z,0.18
2022-12-07T16:00:35.176Z,0.20
2022-12-07T16:03:01.896Z,0.07
2022-12-07T16:05:28.732Z,0.30
2022-12-07T16:07:55.369Z,0.10
2022-12-07T16:10:21.942Z,0.17
2022-12-07T16:12:48.453Z,0.01
2022-12-07T16:15:15.869Z,-0.02
2022-12-07T16:17:43.704Z,-0.21
2022-12-07T16:20:10.906Z,-0.20
2022-12-07T16:22:37.533Z,-0.28
2022-12-07T16:25:04.527Z,-0.58
2022-12-07T16:27:31.224Z,-0.70
2022-12-07T16:29:57.780Z,-0.70
2022-12-07T16:32:24.339Z,-0.70
2022-12-07T16:34:50.877Z,-0.80
2022-12-07T16:37:17.446Z,-0.92
2022-12-07T16:39:43.987Z,-1.11
2022-12-07T16:42:10.568Z,-1.00
2022-12-07T16:44:37.142Z,-1.21
2022-12-07T16:47:03.792Z,-1.29
2022-12-07T16:49:30.576Z,-1.16
2022-12-07T16:54:43.986Z,-1.46
2022-12-07T16:57:10.708Z,-1.35
2022-12-07T16:59:37.273Z,-1.45
2022-12-07T17:02:04.660Z,-1.62
2022-12-07T17:04:31.356Z,-1.68
2022-12-07T17:06:59.431Z,-1.46
2022-12-07T17:09:26.514Z,-1.62
2022-12-07T17:11:53.143Z,-1.48
2022-12-07T17:14:38.373Z,-1.53
2022-12-07T17:17:05.388Z,-1.68
2022-12-07T17:19:31.947Z,-1.75
2022-12-07T17:21:58.512Z,-1.75
2022-12-07T17:24:25.060Z,-1.76
2022-12-07T17:26:51.845Z,-1.80
2022-12-07T17:29:19.505Z,-1.72
2022-12-07T17:31:51.370Z,-1.95
2022-12-07T17:34:18.592Z,-2.02
2022-12-07T17:36:46.148Z,-1.94
2022-12-07T17:39:16.506Z,-1.94
2022-12-07T17:42:02.023Z,-2.28
2022-12-07T17:44:29.409Z,-2.28
2022-12-07T17:46:58.934Z,-2.17
2022-12-07T17:49:27.010Z,-2.19
2022-12-07T17:52:12.402Z,-2.31
2022-12-07T17:54:38.954Z,-2.23
2022-12-07T17:57:05.601Z,-2.21
2022-12-07T17:59:32.265Z,-2.24
2022-12-07T18:01:58.904Z,-2.14
2022-12-07T18:04:25.601Z,-1.95
2022-12-07T18:06:52.981Z,-1.84
2022-12-07T18:09:20.077Z,-1.81
2022-12-07T18:11:46.705Z,-1.75
2022-12-07T18:14:13.296Z,-2.10
2022-12-07T18:16:40.203Z,-1.92
2022-12-07T18:19:07.758Z,-1.99
2022-12-07T18:21:34.849Z,-2.16
2022-12-07T18:24:03.486Z,-2.16
2022-12-07T18:26:32.388Z,-1.94
2022-12-07T18:29:00.439Z,-2.17
2022-12-07T18:31:27.136Z,-2.37
2022-12-07T18:33:57.291Z,-2.59
2022-12-07T18:36:24.257Z,-2.67
2022-12-07T18:38:52.032Z,-2.58
2022-12-07T18:41:20.397Z,-2.82
2022-12-07T18:43:47.149Z,-2.74
2022-12-07T18:46:19.791Z,-2.87
2022-12-07T18:48:47.550Z,-2.72
2022-12-07T18:51:15.650Z,-2.63
2022-12-07T18:53:43.074Z,-2.78
2022-12-07T18:56:20.317Z,-2.96
2022-12-07T18:59:10.679Z,-2.95
2022-12-07T19:01:37.329Z,-2.75
2022-12-07T19:04:04.090Z,-2.85
2022-12-07T19:06:30.648Z,-2.96
2022-12-07T19:08:57.758Z,-2.98
2022-12-07T19:11:45.870Z,-3.20
2022-12-07T19:14:14.259Z,-2.92
2022-12-07T19:16:42.603Z,-2.99
2022-12-07T19:19:09.262Z,-3.19
2022-12-07T19:21:35.872Z,-3.07
2022-12-07T19:24:06.390Z,-3.35
2022-12-07T19:26:32.863Z,-3.43
2022-12-07T19:28:59.617Z,-3.55
2022-12-07T19:31:26.370Z,-3.27
2022-12-07T19:33:52.993Z,-3.25
2022-12-07T19:36:19.604Z,-3.55
2022-12-07T19:38:46.183Z,-3.41
2022-12-07T19:41:32.784Z,-3.35
2022-12-07T19:44:00.529Z,-3.65
2022-12-07T19:46:30.534Z,-3.09
2022-12-07T19:48:58.097Z,-3.06
2022-12-07T19:51:25.099Z,-3.20
2022-12-07T19:53:51.751Z,-3.13
2022-12-07T19:56:20.602Z,-3.38
2022-12-07T19:58:48.027Z,-3.35
2022-12-07T20:01:15.327Z,-3.45
2022-12-07T20:03:42.080Z,-3.44
2022-12-07T20:06:14.667Z,-3.54
2022-12-07T20:08:41.783Z,-3.37
2022-12-07T20:11:27.234Z,-3.44
2022-12-07T20:13:54.509Z,-3.49
2022-12-07T20:16:24.106Z,-3.55
2022-12-07T20:18:57.475Z,-3.63
2022-12-07T20:21:24.538Z,-3.45
2022-12-07T20:23:51.706Z,-3.67
2022-12-07T20:26:26.054Z,-3.70
2022-12-07T20:28:52.719Z,-3.79
2022-12-07T20:31:19.421Z,-3.86
2022-12-07T20:33:49.021Z,-4.04
2022-12-07T20:36:17.710Z,-3.55
2022-12-07T20:38:45.683Z,-3.86
2022-12-07T20:41:53.135Z,-3.87
2022-12-07T20:44:19.796Z,-3.60
2022-12-07T20:46:47.062Z,-3.97
2022-12-07T20:49:19.263Z,-3.89
2022-12-07T20:51:46.121Z,-3.93
2022-12-07T20:54:13.844Z,-3.81
2022-12-07T20:56:40.598Z,-3.76
2022-12-07T20:59:11.865Z,-3.88
2022-12-07T21:01:38.638Z,-3.87
2022-12-07T21:04:05.574Z,-4.00
2022-12-07T21:06:32.345Z,-3.98
2022-12-07T21:09:00.580Z,-4.15
2022-12-07T21:11:33.184Z,-4.00
2022-12-07T21:13:59.794Z,-4.09
2022-12-07T21:16:29.132Z,-4.20
2022-12-07T21:18:57.791Z,-4.01
2022-12-07T21:21:24.737Z,-4.09
2022-12-07T21:24:01.565Z,-4.24
2022-12-07T21:26:29.336Z,-3.85
2022-12-07T21:28:57.386Z,-4.22
2022-12-07T21:31:24.885Z,-4.31
2022-12-07T21:33:51.620Z,-4.37
2022-12-07T21:36:21.340Z,-4.00
2022-12-07T21:38:48.796Z,-4.29
2022-12-07T21:41:24.885Z,-4.06
2022-12-07T21:43:52.433Z,-4.09
2022-12-07T21:46:20.991Z,-4.03
2022-12-07T21:48:57.243Z,-3.96
2022-12-07T21:51:27.411Z,-4.03
2022-12-07T21:53:55.642Z,-3.61
2022-12-07T21:56:27.862Z,-3.88
2022-12-07T21:58:59.058Z,-3.83
2022-12-07T22:01:27.967Z,-3.66
2022-12-07T22:03:54.982Z,-3.70
2022-12-07T22:06:24.604Z,-3.68
2022-12-07T22:08:52.174Z,-3.75
2022-12-07T22:11:19.582Z,-3.61
2022-12-07T22:14:09.948Z,-3.59
2022-12-07T22:16:38.015Z,-3.61
2022-12-07T22:19:05.043Z,-3.73
2022-12-07T22:21:32.231Z,-3.85
2022-12-07T22:23:58.907Z,-3.85
2022-12-07T22:26:25.796Z,-3.93
2022-12-07T22:28:52.421Z,-3.59
2022-12-07T22:31:21.113Z,-4.01
2022-12-07T22:33:48.659Z,-3.94
2022-12-07T22:36:15.686Z,-3.78
2022-12-07T22:38:42.865Z,-3.33
2022-12-07T22:41:22.564Z,-3.45
2022-12-07T22:43:49.215Z,-3.50
2022-12-07T22:46:15.860Z,-3.29
2022-12-07T22:48:42.495Z,-3.37
2022-12-07T22:51:21.101Z,-3.29
2022-12-07T22:53:48.202Z,-3.32
2022-12-07T22:56:14.937Z,-3.49
2022-12-07T22:58:41.659Z,-3.71
2022-12-07T23:01:12.694Z,-3.50
2022-12-07T23:03:40.286Z,-3.51
2022-12-07T23:06:15.207Z,-3.58
2022-12-07T23:08:41.992Z,-3.71
2022-12-07T23:11:37.626Z,-3.52
2022-12-07T23:14:09.507Z,-3.36
2022-12-07T23:16:36.429Z,-3.27
2022-12-07T23:19:03.037Z,-3.24
2022-12-07T23:21:29.630Z,-3.29
2022-12-07T23:23:56.331Z,-3.32
2022-12-07T23:26:22.975Z,-3.08
2022-12-07T23:28:49.563Z,-2.89
2022-12-07T23:31:18.168Z,-2.89
2022-12-07T23:33:44.782Z,-3.11
2022-12-07T23:36:15.101Z,-3.17
2022-12-07T23:38:43.760Z,-3.12
2022-12-07T23:41:15.259Z,-3.04
2022-12-07T23:43:42.589Z,-3.05
2022-12-07T23:46:17.744Z,-3.27
2022-12-07T23:48:45.377Z,-3.29
2022-12-07T23:51:12.813Z,-3.35
2022-12-07T23:53:42.637Z,-3.29
2022-12-07T23:56:18.704Z,-3.19
2022-12-07T23:58:46.721Z,-3.30
